sensor_id;sensor_type;location;lat;lon;timestamp;temperature;humidity
67722;SHT31;58309;45.292;11.820;2022-08-21T00:01:46;21.12;84.12
67722;SHT31;58309;45.292;11.820;2022-08-21T00:04:11;21.05;85.09
67722;SHT31;58309;45.292;11.820;2022-08-21T00:06:37;21.05;84.95
67722;SHT31;58309;45.292;11.820;2022-08-21T00:09:05;20.99;84.39
67722;SHT31;58309;45.292;11.820;2022-08-21T00:11:31;20.98;84.66
67722;SHT31;58309;45.292;11.820;2022-08-21T00:13:57;20.92;84.89
67722;SHT31;58309;45.292;11.820;2022-08-21T00:16:22;20.88;84.58
67722;SHT31;58309;45.292;11.820;2022-08-21T00:18:49;20.88;85.41
67722;SHT31;58309;45.292;11.820;2022-08-21T00:21:15;20.87;84.81
67722;SHT31;58309;45.292;11.820;2022-08-21T00:23:41;20.88;84.19
67722;SHT31;58309;45.292;11.820;2022-08-21T00:26:07;20.87;84.41
67722;SHT31;58309;45.292;11.820;2022-08-21T00:28:33;20.85;83.54
67722;SHT31;58309;45.292;11.820;2022-08-21T00:30:59;20.85;84.00
67722;SHT31;58309;45.292;11.820;2022-08-21T00:33:25;20.83;84.42
67722;SHT31;58309;45.292;11.820;2022-08-21T00:35:51;20.92;83.38
67722;SHT31;58309;45.292;11.820;2022-08-21T00:38:17;20.87;83.60
67722;SHT31;58309;45.292;11.820;2022-08-21T00:40:52;20.85;83.39
67722;SHT31;58309;45.292;11.820;2022-08-21T00:43:21;20.80;84.06
67722;SHT31;58309;45.292;11.820;2022-08-21T00:45:47;20.78;83.65
67722;SHT31;58309;45.292;11.820;2022-08-21T00:48:13;20.75;83.76
67722;SHT31;58309;45.292;11.820;2022-08-21T00:50:48;20.74;83.34
67722;SHT31;58309;45.292;11.820;2022-08-21T00:53:16;20.78;83.52
67722;SHT31;58309;45.292;11.820;2022-08-21T00:55:42;20.80;82.97
67722;SHT31;58309;45.292;11.820;2022-08-21T00:58:09;20.77;82.63
67722;SHT31;58309;45.292;11.820;2022-08-21T01:00:39;20.73;82.51
67722;SHT31;58309;45.292;11.820;2022-08-21T01:03:09;20.73;82.63
67722;SHT31;58309;45.292;11.820;2022-08-21T01:05:36;20.71;82.95
67722;SHT31;58309;45.292;11.820;2022-08-21T01:08:04;20.73;82.64
67722;SHT31;58309;45.292;11.820;2022-08-21T01:10:30;20.67;82.63
67722;SHT31;58309;45.292;11.820;2022-08-21T01:12:56;20.68;83.59
67722;SHT31;58309;45.292;11.820;2022-08-21T01:15:25;20.80;83.61
67722;SHT31;58309;45.292;11.820;2022-08-21T01:17:52;20.75;82.78
67722;SHT31;58309;45.292;11.820;2022-08-21T01:20:19;20.70;82.58
67722;SHT31;58309;45.292;11.820;2022-08-21T01:22:44;20.65;82.44
67722;SHT31;58309;45.292;11.820;2022-08-21T01:25:13;20.64;82.48
67722;SHT31;58309;45.292;11.820;2022-08-21T01:27:40;20.61;82.24
67722;SHT31;58309;45.292;11.820;2022-08-21T01:30:22;20.58;82.50
67722;SHT31;58309;45.292;11.820;2022-08-21T01:32:48;20.51;82.83
67722;SHT31;58309;45.292;11.820;2022-08-21T01:35:15;20.48;83.07
67722;SHT31;58309;45.292;11.820;2022-08-21T01:37:42;20.47;83.29
67722;SHT31;58309;45.292;11.820;2022-08-21T01:40:09;20.47;83.53
67722;SHT31;58309;45.292;11.820;2022-08-21T01:42:36;20.46;83.34
67722;SHT31;58309;45.292;11.820;2022-08-21T01:45:03;20.41;83.63
67722;SHT31;58309;45.292;11.820;2022-08-21T01:47:29;20.36;83.33
67722;SHT31;58309;45.292;11.820;2022-08-21T01:49:54;20.32;83.40
67722;SHT31;58309;45.292;11.820;2022-08-21T01:52:20;20.27;83.31
67722;SHT31;58309;45.292;11.820;2022-08-21T01:54:45;20.24;83.70
67722;SHT31;58309;45.292;11.820;2022-08-21T01:57:11;20.22;83.59
67722;SHT31;58309;45.292;11.820;2022-08-21T01:59:37;20.19;83.94
67722;SHT31;58309;45.292;11.820;2022-08-21T02:02:03;20.17;84.31
67722;SHT31;58309;45.292;11.820;2022-08-21T02:04:29;20.13;84.28
67722;SHT31;58309;45.292;11.820;2022-08-21T02:06:55;20.12;84.27
67722;SHT31;58309;45.292;11.820;2022-08-21T02:09:21;20.10;84.18
67722;SHT31;58309;45.292;11.820;2022-08-21T02:11:47;20.06;84.21
67722;SHT31;58309;45.292;11.820;2022-08-21T02:14:14;20.00;84.10
67722;SHT31;58309;45.292;11.820;2022-08-21T02:16:42;19.96;84.54
67722;SHT31;58309;45.292;11.820;2022-08-21T02:19:08;19.92;84.78
67722;SHT31;58309;45.292;11.820;2022-08-21T02:21:34;19.87;84.89
67722;SHT31;58309;45.292;11.820;2022-08-21T02:24:00;19.85;85.11
67722;SHT31;58309;45.292;11.820;2022-08-21T02:26:26;19.78;85.34
67722;SHT31;58309;45.292;11.820;2022-08-21T02:28:51;19.75;86.09
67722;SHT31;58309;45.292;11.820;2022-08-21T02:31:17;19.71;86.15
67722;SHT31;58309;45.292;11.820;2022-08-21T02:33:43;19.65;85.86
67722;SHT31;58309;45.292;11.820;2022-08-21T02:36:10;19.65;85.95
67722;SHT31;58309;45.292;11.820;2022-08-21T02:38:37;19.61;85.87
67722;SHT31;58309;45.292;11.820;2022-08-21T02:41:09;19.55;86.00
67722;SHT31;58309;45.292;11.820;2022-08-21T02:43:35;19.54;86.39
67722;SHT31;58309;45.292;11.820;2022-08-21T02:46:03;19.50;87.06
67722;SHT31;58309;45.292;11.820;2022-08-21T02:48:31;19.47;87.21
67722;SHT31;58309;45.292;11.820;2022-08-21T02:51:04;19.47;85.87
67722;SHT31;58309;45.292;11.820;2022-08-21T02:53:30;19.43;85.73
67722;SHT31;58309;45.292;11.820;2022-08-21T02:55:59;19.44;85.78
67722;SHT31;58309;45.292;11.820;2022-08-21T02:58:28;19.44;85.60
67722;SHT31;58309;45.292;11.820;2022-08-21T03:00:55;19.43;85.46
67722;SHT31;58309;45.292;11.820;2022-08-21T03:03:21;19.39;85.37
67722;SHT31;58309;45.292;11.820;2022-08-21T03:05:47;19.41;85.30
67722;SHT31;58309;45.292;11.820;2022-08-21T03:08:14;19.39;85.40
67722;SHT31;58309;45.292;11.820;2022-08-21T03:10:44;19.41;85.18
67722;SHT31;58309;45.292;11.820;2022-08-21T03:13:10;19.41;85.01
67722;SHT31;58309;45.292;11.820;2022-08-21T03:15:37;19.36;84.87
67722;SHT31;58309;45.292;11.820;2022-08-21T03:18:03;19.36;84.57
67722;SHT31;58309;45.292;11.820;2022-08-21T03:20:30;19.34;84.63
67722;SHT31;58309;45.292;11.820;2022-08-21T03:22:58;19.34;84.50
67722;SHT31;58309;45.292;11.820;2022-08-21T03:25:25;19.36;84.26
67722;SHT31;58309;45.292;11.820;2022-08-21T03:27:51;19.34;84.73
67722;SHT31;58309;45.292;11.820;2022-08-21T03:30:18;19.32;85.36
67722;SHT31;58309;45.292;11.820;2022-08-21T03:32:45;19.24;85.38
67722;SHT31;58309;45.292;11.820;2022-08-21T03:35:12;19.21;85.31
67722;SHT31;58309;45.292;11.820;2022-08-21T03:37:38;19.14;85.35
67722;SHT31;58309;45.292;11.820;2022-08-21T03:40:06;19.07;85.76
67722;SHT31;58309;45.292;11.820;2022-08-21T03:42:32;19.04;85.66
67722;SHT31;58309;45.292;11.820;2022-08-21T03:44:57;18.97;85.31
67722;SHT31;58309;45.292;11.820;2022-08-21T03:47:23;18.94;86.65
67722;SHT31;58309;45.292;11.820;2022-08-21T03:49:48;19.04;84.93
67722;SHT31;58309;45.292;11.820;2022-08-21T03:52:14;19.06;84.33
67722;SHT31;58309;45.292;11.820;2022-08-21T03:54:40;19.08;83.69
67722;SHT31;58309;45.292;11.820;2022-08-21T03:57:06;19.11;83.81
67722;SHT31;58309;45.292;11.820;2022-08-21T03:59:31;19.11;83.35
67722;SHT31;58309;45.292;11.820;2022-08-21T04:01:59;19.14;83.52
67722;SHT31;58309;45.292;11.820;2022-08-21T04:04:26;19.20;83.18
67722;SHT31;58309;45.292;11.820;2022-08-21T04:06:52;19.21;83.48
67722;SHT31;58309;45.292;11.820;2022-08-21T04:09:18;19.17;82.58
67722;SHT31;58309;45.292;11.820;2022-08-21T04:11:44;19.15;82.40
67722;SHT31;58309;45.292;11.820;2022-08-21T04:14:11;19.14;81.92
67722;SHT31;58309;45.292;11.820;2022-08-21T04:16:37;19.18;81.95
67722;SHT31;58309;45.292;11.820;2022-08-21T04:19:03;19.23;82.19
67722;SHT31;58309;45.292;11.820;2022-08-21T04:21:29;19.18;82.20
67722;SHT31;58309;45.292;11.820;2022-08-21T04:23:55;19.17;82.65
67722;SHT31;58309;45.292;11.820;2022-08-21T04:26:21;19.17;82.58
67722;SHT31;58309;45.292;11.820;2022-08-21T04:28:47;19.14;82.89
67722;SHT31;58309;45.292;11.820;2022-08-21T04:31:12;19.14;83.05
67722;SHT31;58309;45.292;11.820;2022-08-21T04:33:38;19.10;83.43
67722;SHT31;58309;45.292;11.820;2022-08-21T04:36:04;19.15;83.07
67722;SHT31;58309;45.292;11.820;2022-08-21T04:38:30;19.17;83.35
67722;SHT31;58309;45.292;11.820;2022-08-21T04:40:57;19.18;83.27
67722;SHT31;58309;45.292;11.820;2022-08-21T04:43:22;19.18;83.01
67722;SHT31;58309;45.292;11.820;2022-08-21T04:45:50;19.15;83.09
67722;SHT31;58309;45.292;11.820;2022-08-21T04:48:17;19.17;82.74
67722;SHT31;58309;45.292;11.820;2022-08-21T04:53:26;19.23;82.28
67722;SHT31;58309;45.292;11.820;2022-08-21T04:55:52;19.23;82.28
67722;SHT31;58309;45.292;11.820;2022-08-21T04:58:20;19.27;82.01
67722;SHT31;58309;45.292;11.820;2022-08-21T05:00:47;19.30;82.11
67722;SHT31;58309;45.292;11.820;2022-08-21T05:03:14;19.36;81.55
67722;SHT31;58309;45.292;11.820;2022-08-21T05:05:41;19.38;81.73
67722;SHT31;58309;45.292;11.820;2022-08-21T05:08:07;19.44;81.40
67722;SHT31;58309;45.292;11.820;2022-08-21T05:10:33;19.48;80.82
67722;SHT31;58309;45.292;11.820;2022-08-21T05:12:59;19.51;80.91
67722;SHT31;58309;45.292;11.820;2022-08-21T05:15:26;19.59;80.51
67722;SHT31;58309;45.292;11.820;2022-08-21T05:17:52;19.69;80.54
67722;SHT31;58309;45.292;11.820;2022-08-21T05:20:17;19.74;80.51
67722;SHT31;58309;45.292;11.820;2022-08-21T05:22:43;19.82;80.35
67722;SHT31;58309;45.292;11.820;2022-08-21T05:25:09;19.87;80.04
67722;SHT31;58309;45.292;11.820;2022-08-21T05:27:35;19.99;80.16
67722;SHT31;58309;45.292;11.820;2022-08-21T05:30:02;20.08;80.37
67722;SHT31;58309;45.292;11.820;2022-08-21T05:32:28;20.19;79.19
67722;SHT31;58309;45.292;11.820;2022-08-21T05:34:54;20.27;79.24
67722;SHT31;58309;45.292;11.820;2022-08-21T05:37:20;20.36;79.26
67722;SHT31;58309;45.292;11.820;2022-08-21T05:39:46;20.43;79.65
67722;SHT31;58309;45.292;11.820;2022-08-21T05:42:12;20.51;78.99
67722;SHT31;58309;45.292;11.820;2022-08-21T05:44:37;20.61;78.93
67722;SHT31;58309;45.292;11.820;2022-08-21T05:47:07;20.75;78.66
67722;SHT31;58309;45.292;11.820;2022-08-21T05:49:33;20.91;77.69
67722;SHT31;58309;45.292;11.820;2022-08-21T05:51:59;21.01;77.13
67722;SHT31;58309;45.292;11.820;2022-08-21T05:54:25;21.18;75.19
67722;SHT31;58309;45.292;11.820;2022-08-21T05:56:51;21.28;76.10
67722;SHT31;58309;45.292;11.820;2022-08-21T05:59:17;21.41;76.21
67722;SHT31;58309;45.292;11.820;2022-08-21T06:01:43;21.50;74.81
67722;SHT31;58309;45.292;11.820;2022-08-21T06:04:10;21.66;74.22
67722;SHT31;58309;45.292;11.820;2022-08-21T06:06:36;21.72;74.45
67722;SHT31;58309;45.292;11.820;2022-08-21T06:09:03;21.86;73.35
67722;SHT31;58309;45.292;11.820;2022-08-21T06:11:28;21.96;74.01
67722;SHT31;58309;45.292;11.820;2022-08-21T06:13:54;22.03;73.01
67722;SHT31;58309;45.292;11.820;2022-08-21T06:16:19;22.15;72.97
67722;SHT31;58309;45.292;11.820;2022-08-21T06:18:45;22.30;71.79
67722;SHT31;58309;45.292;11.820;2022-08-21T06:21:11;22.41;70.09
67722;SHT31;58309;45.292;11.820;2022-08-21T06:23:37;22.58;70.50
67722;SHT31;58309;45.292;11.820;2022-08-21T06:26:04;22.73;70.30
67722;SHT31;58309;45.292;11.820;2022-08-21T06:28:31;22.88;68.73
67722;SHT31;58309;45.292;11.820;2022-08-21T06:30:57;23.00;69.18
67722;SHT31;58309;45.292;11.820;2022-08-21T06:33:22;23.14;69.74
67722;SHT31;58309;45.292;11.820;2022-08-21T06:35:49;23.31;68.37
67722;SHT31;58309;45.292;11.820;2022-08-21T06:38:14;23.47;68.87
67722;SHT31;58309;45.292;11.820;2022-08-21T06:40:40;23.63;68.48
67722;SHT31;58309;45.292;11.820;2022-08-21T06:43:11;23.75;68.19
67722;SHT31;58309;45.292;11.820;2022-08-21T06:45:37;23.84;68.44
67722;SHT31;58309;45.292;11.820;2022-08-21T06:48:04;24.00;68.90
67722;SHT31;58309;45.292;11.820;2022-08-21T06:50:30;24.12;68.20
67722;SHT31;58309;45.292;11.820;2022-08-21T06:53:08;24.23;67.65
67722;SHT31;58309;45.292;11.820;2022-08-21T06:55:34;24.36;66.80
67722;SHT31;58309;45.292;11.820;2022-08-21T06:58:00;24.46;67.72
67722;SHT31;58309;45.292;11.820;2022-08-21T07:00:26;24.57;66.74
67722;SHT31;58309;45.292;11.820;2022-08-21T07:02:52;24.53;65.36
67722;SHT31;58309;45.292;11.820;2022-08-21T07:05:17;24.46;66.06
67722;SHT31;58309;45.292;11.820;2022-08-21T07:07:43;24.39;66.67
67722;SHT31;58309;45.292;11.820;2022-08-21T07:10:09;24.32;68.65
67722;SHT31;58309;45.292;11.820;2022-08-21T07:12:34;24.33;69.22
67722;SHT31;58309;45.292;11.820;2022-08-21T07:15:00;24.39;67.80
67722;SHT31;58309;45.292;11.820;2022-08-21T07:17:26;24.49;67.05
67722;SHT31;58309;45.292;11.820;2022-08-21T07:19:53;24.59;68.13
67722;SHT31;58309;45.292;11.820;2022-08-21T07:22:19;24.74;68.28
67722;SHT31;58309;45.292;11.820;2022-08-21T07:24:46;24.91;70.12
67722;SHT31;58309;45.292;11.820;2022-08-21T07:27:12;25.00;68.75
67722;SHT31;58309;45.292;11.820;2022-08-21T07:29:38;25.06;68.84
67722;SHT31;58309;45.292;11.820;2022-08-21T07:32:04;25.20;68.72
67722;SHT31;58309;45.292;11.820;2022-08-21T07:34:30;25.23;69.35
67722;SHT31;58309;45.292;11.820;2022-08-21T07:36:57;25.32;69.65
67722;SHT31;58309;45.292;11.820;2022-08-21T07:39:22;25.41;69.16
67722;SHT31;58309;45.292;11.820;2022-08-21T07:41:48;25.45;69.69
67722;SHT31;58309;45.292;11.820;2022-08-21T07:44:13;25.54;70.21
67722;SHT31;58309;45.292;11.820;2022-08-21T07:46:39;25.59;70.00
67722;SHT31;58309;45.292;11.820;2022-08-21T07:49:04;25.68;71.17
67722;SHT31;58309;45.292;11.820;2022-08-21T07:51:30;25.83;71.45
67722;SHT31;58309;45.292;11.820;2022-08-21T07:53:57;25.81;72.01
67722;SHT31;58309;45.292;11.820;2022-08-21T07:56:25;25.79;73.61
67722;SHT31;58309;45.292;11.820;2022-08-21T07:58:51;25.76;72.69
67722;SHT31;58309;45.292;11.820;2022-08-21T08:01:18;25.81;72.35
67722;SHT31;58309;45.292;11.820;2022-08-21T08:03:43;25.95;72.83
67722;SHT31;58309;45.292;11.820;2022-08-21T08:06:10;26.09;71.29
67722;SHT31;58309;45.292;11.820;2022-08-21T08:08:41;26.26;71.25
67722;SHT31;58309;45.292;11.820;2022-08-21T08:11:07;26.33;70.33
67722;SHT31;58309;45.292;11.820;2022-08-21T08:13:39;26.47;71.08
67722;SHT31;58309;45.292;11.820;2022-08-21T08:16:06;26.57;70.38
67722;SHT31;58309;45.292;11.820;2022-08-21T08:18:31;26.70;70.27
67722;SHT31;58309;45.292;11.820;2022-08-21T08:20:57;26.85;69.68
67722;SHT31;58309;45.292;11.820;2022-08-21T08:23:22;26.88;69.20
67722;SHT31;58309;45.292;11.820;2022-08-21T08:25:48;27.16;69.22
67722;SHT31;58309;45.292;11.820;2022-08-21T08:28:13;27.62;67.18
67722;SHT31;58309;45.292;11.820;2022-08-21T08:30:39;29.06;59.61
67722;SHT31;58309;45.292;11.820;2022-08-21T08:33:05;30.35;56.06
67722;SHT31;58309;45.292;11.820;2022-08-21T08:35:30;31.44;53.79
67722;SHT31;58309;45.292;11.820;2022-08-21T08:37:56;32.59;50.91
67722;SHT31;58309;45.292;11.820;2022-08-21T08:40:39;33.21;47.75
67722;SHT31;58309;45.292;11.820;2022-08-21T08:43:07;33.38;44.90
67722;SHT31;58309;45.292;11.820;2022-08-21T08:45:36;33.29;46.15
67722;SHT31;58309;45.292;11.820;2022-08-21T08:48:05;33.56;45.42
67722;SHT31;58309;45.292;11.820;2022-08-21T08:50:44;34.24;43.65
67722;SHT31;58309;45.292;11.820;2022-08-21T08:53:22;34.74;43.92
67722;SHT31;58309;45.292;11.820;2022-08-21T08:55:51;35.02;42.19
67722;SHT31;58309;45.292;11.820;2022-08-21T08:58:22;35.40;40.87
67722;SHT31;58309;45.292;11.820;2022-08-21T09:00:51;35.59;40.07
67722;SHT31;58309;45.292;11.820;2022-08-21T09:03:16;35.78;41.00
67722;SHT31;58309;45.292;11.820;2022-08-21T09:05:48;35.80;39.88
67722;SHT31;58309;45.292;11.820;2022-08-21T09:11:06;35.90;39.57
67722;SHT31;58309;45.292;11.820;2022-08-21T09:22:43;36.15;39.82
67722;SHT31;58309;45.292;11.820;2022-08-21T09:25:27;36.28;39.10
67722;SHT31;58309;45.292;11.820;2022-08-21T09:27:54;36.37;39.37
67722;SHT31;58309;45.292;11.820;2022-08-21T09:30:26;36.14;38.56
67722;SHT31;58309;45.292;11.820;2022-08-21T09:32:52;36.18;38.27
67722;SHT31;58309;45.292;11.820;2022-08-21T09:35:21;36.35;39.70
67722;SHT31;58309;45.292;11.820;2022-08-21T09:38:03;36.02;38.76
67722;SHT31;58309;45.292;11.820;2022-08-21T09:40:45;36.08;38.71
67722;SHT31;58309;45.292;11.820;2022-08-21T09:45:37;37.03;38.42
67722;SHT31;58309;45.292;11.820;2022-08-21T09:48:15;37.10;36.81
67722;SHT31;58309;45.292;11.820;2022-08-21T09:50:43;36.75;36.46
67722;SHT31;58309;45.292;11.820;2022-08-21T09:55:53;36.82;38.20
67722;SHT31;58309;45.292;11.820;2022-08-21T09:58:41;36.68;38.81
67722;SHT31;58309;45.292;11.820;2022-08-21T10:01:14;36.44;37.96
67722;SHT31;58309;45.292;11.820;2022-08-21T10:03:40;36.80;40.71
67722;SHT31;58309;45.292;11.820;2022-08-21T10:06:07;37.38;38.72
67722;SHT31;58309;45.292;11.820;2022-08-21T10:08:37;37.33;37.28
67722;SHT31;58309;45.292;11.820;2022-08-21T10:11:08;37.31;36.69
67722;SHT31;58309;45.292;11.820;2022-08-21T10:16:22;37.91;35.93
67722;SHT31;58309;45.292;11.820;2022-08-21T10:21:46;37.87;34.06
67722;SHT31;58309;45.292;11.820;2022-08-21T10:27:16;37.07;37.89
67722;SHT31;58309;45.292;11.820;2022-08-21T10:46:50;38.01;32.53
67722;SHT31;58309;45.292;11.820;2022-08-21T10:49:38;38.63;32.63
67722;SHT31;58309;45.292;11.820;2022-08-21T10:55:02;39.27;31.85
67722;SHT31;58309;45.292;11.820;2022-08-21T11:00:06;38.99;31.07
67722;SHT31;58309;45.292;11.820;2022-08-21T11:02:42;39.33;32.63
67722;SHT31;58309;45.292;11.820;2022-08-21T11:05:31;39.84;32.46
67722;SHT31;58309;45.292;11.820;2022-08-21T11:08:15;39.92;31.32
67722;SHT31;58309;45.292;11.820;2022-08-21T11:18:37;40.20;32.88
67722;SHT31;58309;45.292;11.820;2022-08-21T11:21:28;40.06;30.99
67722;SHT31;58309;45.292;11.820;2022-08-21T11:24:17;39.81;31.15
67722;SHT31;58309;45.292;11.820;2022-08-21T11:29:29;39.68;30.94
67722;SHT31;58309;45.292;11.820;2022-08-21T11:37:14;40.02;31.91
67722;SHT31;58309;45.292;11.820;2022-08-21T11:42:51;38.46;32.59
67722;SHT31;58309;45.292;11.820;2022-08-21T11:45:35;38.15;32.27
67722;SHT31;58309;45.292;11.820;2022-08-21T11:48:15;38.26;31.80
67722;SHT31;58309;45.292;11.820;2022-08-21T11:50:43;38.70;31.19
67722;SHT31;58309;45.292;11.820;2022-08-21T11:53:21;38.89;31.37
67722;SHT31;58309;45.292;11.820;2022-08-21T11:56:02;39.72;31.77
67722;SHT31;58309;45.292;11.820;2022-08-21T11:58:38;40.39;30.40
67722;SHT31;58309;45.292;11.820;2022-08-21T12:01:08;40.17;29.27
67722;SHT31;58309;45.292;11.820;2022-08-21T12:03:38;39.23;29.80
67722;SHT31;58309;45.292;11.820;2022-08-21T12:06:09;39.38;30.94
67722;SHT31;58309;45.292;11.820;2022-08-21T12:08:43;39.78;29.76
67722;SHT31;58309;45.292;11.820;2022-08-21T12:16:37;39.47;31.57
67722;SHT31;58309;45.292;11.820;2022-08-21T12:19:28;39.18;30.03
67722;SHT31;58309;45.292;11.820;2022-08-21T12:24:48;37.68;31.92
67722;SHT31;58309;45.292;11.820;2022-08-21T12:27:39;36.68;30.39
67722;SHT31;58309;45.292;11.820;2022-08-21T12:33:03;34.58;35.93
67722;SHT31;58309;45.292;11.820;2022-08-21T12:35:48;33.94;34.94
67722;SHT31;58309;45.292;11.820;2022-08-21T12:43:45;33.00;37.39
67722;SHT31;58309;45.292;11.820;2022-08-21T12:46:22;32.67;37.27
67722;SHT31;58309;45.292;11.820;2022-08-21T12:49:12;32.41;40.65
67722;SHT31;58309;45.292;11.820;2022-08-21T12:52:00;32.41;40.86
67722;SHT31;58309;45.292;11.820;2022-08-21T12:54:36;32.36;39.34
67722;SHT31;58309;45.292;11.820;2022-08-21T12:57:06;32.22;39.98
67722;SHT31;58309;45.292;11.820;2022-08-21T12:59:32;32.19;41.27
67722;SHT31;58309;45.292;11.820;2022-08-21T13:02:03;32.02;40.94
67722;SHT31;58309;45.292;11.820;2022-08-21T13:04:38;31.73;42.98
67722;SHT31;58309;45.292;11.820;2022-08-21T13:07:07;31.71;41.14
67722;SHT31;58309;45.292;11.820;2022-08-21T13:09:44;31.66;40.65
67722;SHT31;58309;45.292;11.820;2022-08-21T13:12:12;31.66;42.32
67722;SHT31;58309;45.292;11.820;2022-08-21T13:14:44;31.73;41.01
67722;SHT31;58309;45.292;11.820;2022-08-21T13:17:14;31.68;44.56
67722;SHT31;58309;45.292;11.820;2022-08-21T13:19:42;31.69;44.80
67722;SHT31;58309;45.292;11.820;2022-08-21T13:22:15;31.76;42.01
67722;SHT31;58309;45.292;11.820;2022-08-21T13:24:41;31.90;42.46
67722;SHT31;58309;45.292;11.820;2022-08-21T13:29:47;31.79;42.11
67722;SHT31;58309;45.292;11.820;2022-08-21T13:32:21;31.79;41.61
67722;SHT31;58309;45.292;11.820;2022-08-21T13:34:47;31.73;43.20
67722;SHT31;58309;45.292;11.820;2022-08-21T13:37:14;31.78;39.61
67722;SHT31;58309;45.292;11.820;2022-08-21T13:39:39;31.92;38.04
67722;SHT31;58309;45.292;11.820;2022-08-21T13:42:11;31.86;38.87
67722;SHT31;58309;45.292;11.820;2022-08-21T13:44:45;31.79;38.24
67722;SHT31;58309;45.292;11.820;2022-08-21T13:47:13;31.82;38.56
67722;SHT31;58309;45.292;11.820;2022-08-21T13:49:42;31.94;38.37
67722;SHT31;58309;45.292;11.820;2022-08-21T13:52:44;31.72;41.05
67722;SHT31;58309;45.292;11.820;2022-08-21T13:55:13;31.68;41.83
67722;SHT31;58309;45.292;11.820;2022-08-21T13:57:42;31.58;46.20
67722;SHT31;58309;45.292;11.820;2022-08-21T14:00:20;31.69;40.85
67722;SHT31;58309;45.292;11.820;2022-08-21T14:02:52;31.90;40.49
67722;SHT31;58309;45.292;11.820;2022-08-21T14:05:31;32.03;39.88
67722;SHT31;58309;45.292;11.820;2022-08-21T14:10:56;32.05;47.88
67722;SHT31;58309;45.292;11.820;2022-08-21T14:13:29;32.03;48.99
67722;SHT31;58309;45.292;11.820;2022-08-21T14:16:00;31.92;39.94
67722;SHT31;58309;45.292;11.820;2022-08-21T14:18:27;31.86;40.10
67722;SHT31;58309;45.292;11.820;2022-08-21T14:21:13;31.71;41.15
67722;SHT31;58309;45.292;11.820;2022-08-21T14:23:47;31.72;47.18
67722;SHT31;58309;45.292;11.820;2022-08-21T14:26:17;31.75;47.39
67722;SHT31;58309;45.292;11.820;2022-08-21T14:28:42;31.73;45.87
67722;SHT31;58309;45.292;11.820;2022-08-21T14:31:17;31.73;46.13
67722;SHT31;58309;45.292;11.820;2022-08-21T14:33:43;31.73;46.52
67722;SHT31;58309;45.292;11.820;2022-08-21T14:36:09;31.62;46.47
67722;SHT31;58309;45.292;11.820;2022-08-21T14:38:38;31.52;47.34
67722;SHT31;58309;45.292;11.820;2022-08-21T14:41:17;31.53;48.86
67722;SHT31;58309;45.292;11.820;2022-08-21T14:43:44;31.59;46.77
67722;SHT31;58309;45.292;11.820;2022-08-21T14:46:11;31.76;48.59
67722;SHT31;58309;45.292;11.820;2022-08-21T14:48:37;31.73;46.87
67722;SHT31;58309;45.292;11.820;2022-08-21T14:51:03;31.81;47.86
67722;SHT31;58309;45.292;11.820;2022-08-21T14:53:30;31.82;48.08
67722;SHT31;58309;45.292;11.820;2022-08-21T14:55:55;31.88;47.13
67722;SHT31;58309;45.292;11.820;2022-08-21T14:58:31;31.94;47.57
67722;SHT31;58309;45.292;11.820;2022-08-21T15:00:57;32.05;48.44
67722;SHT31;58309;45.292;11.820;2022-08-21T15:03:24;32.16;45.75
67722;SHT31;58309;45.292;11.820;2022-08-21T15:05:50;32.22;44.32
67722;SHT31;58309;45.292;11.820;2022-08-21T15:08:17;32.17;45.70
67722;SHT31;58309;45.292;11.820;2022-08-21T15:10:43;32.10;45.10
67722;SHT31;58309;45.292;11.820;2022-08-21T15:13:09;32.00;44.68
67722;SHT31;58309;45.292;11.820;2022-08-21T15:15:44;31.83;45.42
67722;SHT31;58309;45.292;11.820;2022-08-21T15:18:11;31.76;42.92
67722;SHT31;58309;45.292;11.820;2022-08-21T15:20:37;31.57;44.63
67722;SHT31;58309;45.292;11.820;2022-08-21T15:23:04;31.51;46.99
67722;SHT31;58309;45.292;11.820;2022-08-21T15:25:30;31.48;45.07
67722;SHT31;58309;45.292;11.820;2022-08-21T15:27:56;31.45;44.47
67722;SHT31;58309;45.292;11.820;2022-08-21T15:30:22;31.32;45.83
67722;SHT31;58309;45.292;11.820;2022-08-21T15:32:48;31.34;48.97
67722;SHT31;58309;45.292;11.820;2022-08-21T15:35:13;31.28;52.78
67722;SHT31;58309;45.292;11.820;2022-08-21T15:37:49;31.17;51.95
67722;SHT31;58309;45.292;11.820;2022-08-21T15:40:15;31.18;52.25
67722;SHT31;58309;45.292;11.820;2022-08-21T15:42:41;31.17;51.11
67722;SHT31;58309;45.292;11.820;2022-08-21T15:45:09;31.10;50.90
67722;SHT31;58309;45.292;11.820;2022-08-21T15:47:37;31.12;48.38
67722;SHT31;58309;45.292;11.820;2022-08-21T15:50:06;31.15;47.93
67722;SHT31;58309;45.292;11.820;2022-08-21T15:52:32;31.10;49.44
67722;SHT31;58309;45.292;11.820;2022-08-21T15:54:57;31.10;50.74
67722;SHT31;58309;45.292;11.820;2022-08-21T15:57:24;31.00;51.74
67722;SHT31;58309;45.292;11.820;2022-08-21T15:59:59;30.87;51.96
67722;SHT31;58309;45.292;11.820;2022-08-21T16:02:33;30.76;52.16
67722;SHT31;58309;45.292;11.820;2022-08-21T16:04:59;30.79;50.91
67722;SHT31;58309;45.292;11.820;2022-08-21T16:07:25;30.80;50.38
67722;SHT31;58309;45.292;11.820;2022-08-21T16:09:51;30.76;52.17
67722;SHT31;58309;45.292;11.820;2022-08-21T16:12:20;30.79;50.50
67722;SHT31;58309;45.292;11.820;2022-08-21T16:14:46;30.81;50.30
67722;SHT31;58309;45.292;11.820;2022-08-21T16:17:12;30.81;51.72
67722;SHT31;58309;45.292;11.820;2022-08-21T16:19:38;30.76;51.96
67722;SHT31;58309;45.292;11.820;2022-08-21T16:22:04;30.67;52.58
67722;SHT31;58309;45.292;11.820;2022-08-21T16:24:30;30.57;52.49
67722;SHT31;58309;45.292;11.820;2022-08-21T16:26:55;30.50;52.99
67722;SHT31;58309;45.292;11.820;2022-08-21T16:29:22;30.37;53.09
67722;SHT31;58309;45.292;11.820;2022-08-21T16:31:48;30.32;52.02
67722;SHT31;58309;45.292;11.820;2022-08-21T16:34:17;30.31;52.88
67722;SHT31;58309;45.292;11.820;2022-08-21T16:36:43;30.26;51.83
67722;SHT31;58309;45.292;11.820;2022-08-21T16:39:08;30.29;52.99
67722;SHT31;58309;45.292;11.820;2022-08-21T16:41:35;30.28;52.04
67722;SHT31;58309;45.292;11.820;2022-08-21T16:44:02;30.19;51.94
67722;SHT31;58309;45.292;11.820;2022-08-21T16:46:30;30.15;52.65
67722;SHT31;58309;45.292;11.820;2022-08-21T16:48:57;30.06;52.99
67722;SHT31;58309;45.292;11.820;2022-08-21T16:51:22;30.00;52.45
67722;SHT31;58309;45.292;11.820;2022-08-21T16:53:49;29.94;53.20
67722;SHT31;58309;45.292;11.820;2022-08-21T16:56:16;29.91;52.64